Time;durP1;ratioP1;P1;durP2;ratioP2;P2;SDS_P1;SDS_P2;PMS_P1;PMS_P2;Temp;Humidity;BMP_temperature;BMP_pressure;BME280_temperature;BME280_humidity;BME280_pressure;Samples;Min_cycle;Max_cycle;Signal;HPM_P1;HPM_P2
2022/01/06 00:01:06;;;;;;;28.13;3.80;;;4.20;99.90;;;;;;5049864;28;20037;-68
2022/01/06 00:03:32;;;;;;;19.88;2.47;;;4.10;99.90;;;;;;5050743;28;20167;-68
2022/01/06 00:06:03;;;;;;;13.23;2.45;;;4.30;99.90;;;;;;5052552;28;20052;-67
2022/01/06 00:08:29;;;;;;;13.30;2.35;;;4.20;99.90;;;;;;5051220;28;20049;-67
2022/01/06 00:10:55;;;;;;;19.50;2.60;;;4.10;99.90;;;;;;5050958;28;20047;-67
2022/01/06 00:16:15;;;;;;;19.13;3.00;;;3.90;99.90;;;;;;5032524;28;20046;-67
2022/01/06 00:23:17;;;;;;;17.08;2.80;;;3.90;99.90;;;;;;5051709;28;20037;-66
2022/01/06 00:24:22;;;;;;;20.02;3.60;;;3.90;99.90;;;;;;5051564;28;20503;-67
2022/01/06 00:26:48;;;;;;;27.75;3.83;;;3.80;99.90;;;;;;5049518;28;20416;-67
2022/01/06 00:29:15;;;;;;;15.32;2.90;;;3.80;99.90;;;;;;5047408;28;20554;-67
2022/01/06 00:31:40;;;;;;;23.10;3.67;;;3.80;99.90;;;;;;5043445;28;20128;-67
2022/01/06 00:34:10;;;;;;;16.90;3.25;;;3.80;99.90;;;;;;5050706;28;20719;-68
2022/01/06 00:36:37;;;;;;;25.20;3.50;;;3.80;99.90;;;;;;5049390;28;20107;-66
2022/01/06 00:39:03;;;;;;;20.52;3.13;;;3.80;99.90;;;;;;5044049;28;20079;-67
2022/01/06 00:41:29;;;;;;;29.42;4.50;;;3.90;99.90;;;;;;5048544;28;20072;-66
2022/01/06 00:43:54;;;;;;;20.20;3.38;;;3.90;99.90;;;;;;5054418;28;20103;-67
2022/01/06 00:46:20;;;;;;;25.40;3.03;;;3.90;99.90;;;;;;5051879;28;20070;-67
2022/01/06 00:48:45;;;;;;;22.55;3.15;;;3.90;99.90;;;;;;5053430;28;20132;-68
2022/01/06 00:51:11;;;;;;;18.35;3.22;;;3.90;99.90;;;;;;5052173;28;20056;-68
2022/01/06 00:53:37;;;;;;;19.55;3.53;;;3.80;99.90;;;;;;5052676;28;20169;-68
2022/01/06 00:56:02;;;;;;;27.95;4.18;;;3.80;99.90;;;;;;5053788;28;20036;-67
2022/01/06 00:58:28;;;;;;;26.35;3.53;;;3.80;99.90;;;;;;5053118;28;20615;-66
2022/01/06 01:00:53;;;;;;;26.10;3.53;;;3.80;99.90;;;;;;5049394;28;20052;-66
2022/01/06 01:03:21;;;;;;;17.92;3.40;;;3.70;99.90;;;;;;5045535;28;20071;-66
2022/01/06 01:05:50;;;;;;;22.33;3.15;;;3.70;99.90;;;;;;5051545;28;20044;-67
2022/01/06 01:08:16;;;;;;;19.50;3.08;;;3.70;99.90;;;;;;5053023;28;20069;-68
2022/01/06 01:10:43;;;;;;;22.48;2.55;;;3.70;99.90;;;;;;5053434;28;20120;-66
2022/01/06 01:13:11;;;;;;;13.27;2.47;;;3.70;99.90;;;;;;5052723;28;20041;-66
2022/01/06 01:15:53;;;;;;;21.92;2.67;;;3.70;99.90;;;;;;5041018;28;20467;-66
2022/01/06 01:18:20;;;;;;;17.73;2.75;;;3.70;99.90;;;;;;5055666;28;20048;-66
2022/01/06 01:20:47;;;;;;;27.02;3.25;;;3.70;99.90;;;;;;5051695;28;20045;-67
2022/01/06 01:23:14;;;;;;;17.13;2.78;;;3.70;99.90;;;;;;5054422;28;20462;-66
2022/01/06 01:25:39;;;;;;;18.20;3.40;;;3.70;99.90;;;;;;5054797;28;20094;-66
2022/01/06 01:28:05;;;;;;;14.60;2.92;;;3.60;99.90;;;;;;5054475;28;20037;-66
2022/01/06 01:30:39;;;;;;;28.67;3.78;;;3.60;99.90;;;;;;5052716;28;20040;-66
2022/01/06 01:33:14;;;;;;;18.60;3.15;;;3.60;99.90;;;;;;5053489;28;20074;-66
2022/01/06 01:35:40;;;;;;;21.55;2.95;;;3.50;99.90;;;;;;5053348;28;20125;-66
2022/01/06 01:38:07;;;;;;;19.95;3.15;;;3.50;99.90;;;;;;5048761;28;20051;-66
2022/01/06 01:40:32;;;;;;;11.93;2.33;;;3.60;99.90;;;;;;5052186;28;20041;-67
2022/01/06 01:42:58;;;;;;;27.63;3.47;;;3.60;99.90;;;;;;5051552;28;20491;-67
2022/01/06 01:45:28;;;;;;;21.85;2.80;;;3.60;99.90;;;;;;5050593;28;20037;-66
2022/01/06 01:47:55;;;;;;;20.13;2.55;;;3.60;99.90;;;;;;5034258;28;20407;-66
2022/01/06 01:50:21;;;;;;;15.60;1.98;;;3.60;99.90;;;;;;5049667;28;20096;-66
2022/01/06 01:52:52;;;;;;;15.38;3.15;;;3.60;99.90;;;;;;5051677;28;20037;-67
2022/01/06 01:55:25;;;;;;;17.08;2.25;;;3.70;99.90;;;;;;5051902;28;20052;-66
2022/01/06 01:57:52;;;;;;;16.80;2.28;;;3.70;99.90;;;;;;5052834;28;20128;-66
2022/01/06 02:00:20;;;;;;;15.70;2.88;;;3.80;99.90;;;;;;5050091;28;20049;-66
2022/01/06 02:02:47;;;;;;;15.07;2.28;;;3.80;99.90;;;;;;5050023;28;20049;-66
2022/01/06 02:05:12;;;;;;;19.33;2.40;;;3.70;99.90;;;;;;5051479;28;20103;-67
2022/01/06 02:07:39;;;;;;;12.43;2.55;;;3.70;99.90;;;;;;5050898;28;20120;-67
2022/01/06 02:10:06;;;;;;;14.48;2.22;;;3.70;99.90;;;;;;5051295;28;20037;-68
2022/01/06 02:12:36;;;;;;;11.20;2.42;;;3.70;99.90;;;;;;5050014;28;20053;-66
2022/01/06 02:15:07;;;;;;;11.35;2.72;;;3.80;99.90;;;;;;5049623;28;20032;-66
2022/01/06 02:17:33;;;;;;;14.60;2.28;;;3.80;99.90;;;;;;5049041;28;20120;-67
2022/01/06 02:20:00;;;;;;;12.38;2.50;;;3.80;99.90;;;;;;5050060;28;20151;-66
2022/01/06 02:22:26;;;;;;;16.88;2.22;;;3.80;99.90;;;;;;5051185;28;20114;-67
2022/01/06 02:24:53;;;;;;;16.33;2.75;;;3.90;99.90;;;;;;5051972;28;20047;-67
2022/01/06 02:27:20;;;;;;;20.80;3.15;;;3.90;99.90;;;;;;5051362;28;20053;-66
2022/01/06 02:29:47;;;;;;;22.42;3.08;;;3.90;99.90;;;;;;5051179;28;20075;-66
2022/01/06 02:32:16;;;;;;;15.10;2.53;;;3.90;99.90;;;;;;5046326;28;20375;-66
2022/01/06 02:34:44;;;;;;;32.28;3.88;;;3.80;99.90;;;;;;5049782;28;20067;-67
2022/01/06 02:37:09;;;;;;;32.22;3.92;;;3.80;99.90;;;;;;5050195;28;20049;-66
2022/01/06 02:39:35;;;;;;;19.98;2.35;;;3.80;99.90;;;;;;5050070;28;20044;-67
2022/01/06 02:42:01;;;;;;;18.10;2.78;;;3.80;99.90;;;;;;5050709;28;22232;-66
2022/01/06 02:44:26;;;;;;;18.67;3.42;;;3.90;99.90;;;;;;5048901;28;20077;-67
2022/01/06 02:46:54;;;;;;;26.25;3.78;;;3.80;99.90;;;;;;5048190;28;20048;-67
2022/01/06 02:49:20;;;;;;;16.52;3.05;;;3.80;99.90;;;;;;5049616;28;20044;-67
2022/01/06 02:51:46;;;;;;;19.48;3.47;;;3.70;99.90;;;;;;5046259;28;20037;-67
2022/01/06 02:54:13;;;;;;;18.00;2.83;;;3.70;99.90;;;;;;5048359;28;20411;-67
2022/01/06 02:56:39;;;;;;;24.73;3.05;;;3.60;99.90;;;;;;5045791;28;20041;-67
2022/01/06 02:59:05;;;;;;;21.10;3.13;;;3.60;99.90;;;;;;5035224;28;20171;-67
2022/01/06 03:01:30;;;;;;;20.67;2.60;;;3.60;99.90;;;;;;5041793;28;20124;-67
2022/01/06 03:03:56;;;;;;;26.08;2.65;;;3.40;99.90;;;;;;5049324;28;20041;-66
2022/01/06 03:06:22;;;;;;;22.80;3.15;;;3.50;99.90;;;;;;5046916;28;20044;-66
2022/01/06 03:08:47;;;;;;;21.08;2.95;;;3.40;99.90;;;;;;5049971;28;20071;-67
2022/01/06 03:11:13;;;;;;;27.80;3.42;;;3.30;99.90;;;;;;5050387;28;20033;-66
2022/01/06 03:13:39;;;;;;;29.63;3.28;;;3.30;99.90;;;;;;5050233;28;20047;-66
2022/01/06 03:16:05;;;;;;;25.92;3.10;;;3.20;99.90;;;;;;5048171;28;20048;-66
2022/01/06 03:18:30;;;;;;;22.98;3.40;;;3.20;99.90;;;;;;5034602;28;20491;-67
2022/01/06 03:20:56;;;;;;;20.60;2.92;;;3.20;99.90;;;;;;5033360;28;20039;-67
2022/01/06 03:23:22;;;;;;;22.73;3.70;;;3.20;99.90;;;;;;5050538;28;20044;-67
2022/01/06 03:25:47;;;;;;;20.08;3.13;;;3.10;99.90;;;;;;5048511;28;20533;-67
2022/01/06 03:28:13;;;;;;;25.90;3.15;;;3.10;99.90;;;;;;5050018;28;20580;-66
2022/01/06 03:30:39;;;;;;;27.60;3.80;;;3.10;99.90;;;;;;5049651;28;20048;-67
2022/01/06 03:33:05;;;;;;;18.00;3.17;;;3.10;99.90;;;;;;5048498;28;20041;-67
2022/01/06 03:35:30;;;;;;;18.05;2.88;;;3.00;99.90;;;;;;5048916;28;20053;-67
2022/01/06 03:37:56;;;;;;;20.48;2.95;;;3.10;99.90;;;;;;5047707;28;20135;-66
2022/01/06 03:40:22;;;;;;;18.15;3.45;;;3.10;99.90;;;;;;5050789;28;20045;-67
2022/01/06 03:42:48;;;;;;;22.08;4.13;;;3.10;99.90;;;;;;5046474;28;20044;-66
2022/01/06 03:45:16;;;;;;;25.10;4.07;;;3.00;99.90;;;;;;5048578;28;20029;-66
2022/01/06 03:47:42;;;;;;;18.80;3.08;;;3.00;99.90;;;;;;5049868;28;20056;-67
2022/01/06 03:50:10;;;;;;;26.42;3.95;;;2.90;99.90;;;;;;5046555;28;20052;-67
2022/01/06 03:52:36;;;;;;;31.33;4.27;;;2.90;99.90;;;;;;5047835;28;20056;-66
2022/01/06 03:55:03;;;;;;;19.05;3.42;;;2.80;99.90;;;;;;5048631;28;20299;-66
2022/01/06 03:57:29;;;;;;;18.93;3.37;;;2.70;99.90;;;;;;5049587;28;20037;-66
2022/01/06 03:59:54;;;;;;;18.13;3.50;;;2.70;99.90;;;;;;5037246;28;20121;-67
2022/01/06 04:02:21;;;;;;;30.50;4.35;;;2.70;99.90;;;;;;5048835;28;20180;-66
2022/01/06 04:04:46;;;;;;;21.90;3.33;;;2.70;99.90;;;;;;5046581;28;20455;-67
2022/01/06 04:07:12;;;;;;;25.50;3.08;;;2.70;99.90;;;;;;5047422;28;20056;-67
2022/01/06 04:09:38;;;;;;;27.85;3.50;;;2.60;99.90;;;;;;5048864;28;20108;-67
2022/01/06 04:12:03;;;;;;;27.92;3.72;;;2.60;99.90;;;;;;5049744;28;20040;-66
2022/01/06 04:14:29;;;;;;;28.35;3.30;;;2.60;99.90;;;;;;5049393;28;20052;-67
2022/01/06 04:16:59;;;;;;;31.33;3.35;;;2.50;99.90;;;;;;5051232;28;20029;-66
2022/01/06 04:19:25;;;;;;;28.92;2.95;;;2.50;99.90;;;;;;5053906;28;20043;-66
2022/01/06 04:21:51;;;;;;;31.35;3.92;;;2.50;99.90;;;;;;5053628;28;20215;-66
2022/01/06 04:24:17;;;;;;;16.90;3.10;;;2.40;99.90;;;;;;5054137;28;20049;-66
2022/01/06 04:26:42;;;;;;;19.13;3.80;;;2.30;99.90;;;;;;5053131;28;20402;-66
2022/01/06 04:29:08;;;;;;;25.63;3.58;;;2.30;99.90;;;;;;5052542;28;20091;-66
2022/01/06 04:31:34;;;;;;;23.52;3.83;;;2.20;99.90;;;;;;5051192;28;20099;-67
2022/01/06 04:33:59;;;;;;;24.83;3.20;;;2.10;99.90;;;;;;5052526;28;20435;-67
2022/01/06 04:36:25;;;;;;;30.05;3.45;;;2.20;99.90;;;;;;5052911;28;20041;-68
2022/01/06 04:38:50;;;;;;;17.60;3.13;;;2.10;99.90;;;;;;5052936;28;20099;-67
2022/01/06 04:41:16;;;;;;;27.40;3.67;;;2.10;99.90;;;;;;5052746;28;20415;-67
2022/01/06 04:43:41;;;;;;;25.20;3.13;;;2.10;99.90;;;;;;5054003;28;20136;-67
2022/01/06 04:46:07;;;;;;;30.30;3.97;;;2.10;99.90;;;;;;5052528;28;20049;-68
2022/01/06 04:48:35;;;;;;;21.10;3.28;;;2.10;99.90;;;;;;5053526;28;20483;-67
2022/01/06 04:51:01;;;;;;;32.88;4.93;;;2.10;99.90;;;;;;5052939;28;20055;-68
2022/01/06 04:53:26;;;;;;;18.30;2.90;;;2.10;99.90;;;;;;5048124;28;20397;-67
2022/01/06 04:55:54;;;;;;;27.77;3.67;;;2.10;99.90;;;;;;5051515;28;20048;-67
2022/01/06 04:58:20;;;;;;;25.55;3.72;;;2.10;99.90;;;;;;5052344;28;20049;-67
2022/01/06 05:00:45;;;;;;;27.83;4.07;;;2.10;99.90;;;;;;5051496;28;20041;-66
2022/01/06 05:03:11;;;;;;;22.08;3.53;;;2.00;99.90;;;;;;5051638;28;20049;-66
2022/01/06 05:05:37;;;;;;;24.88;4.00;;;2.00;99.90;;;;;;5051476;28;20106;-67
2022/01/06 05:08:02;;;;;;;22.05;3.80;;;2.00;99.90;;;;;;5048555;28;20076;-67
2022/01/06 05:10:28;;;;;;;15.68;3.10;;;1.90;99.90;;;;;;5051721;28;20037;-67
2022/01/06 05:12:54;;;;;;;18.60;3.15;;;1.80;99.90;;;;;;5050485;28;20048;-66
2022/01/06 05:15:19;;;;;;;20.80;3.35;;;1.70;99.90;;;;;;5051721;28;20060;-66
2022/01/06 05:17:45;;;;;;;27.25;4.32;;;1.70;99.90;;;;;;5051250;28;20104;-66
2022/01/06 05:20:11;;;;;;;28.15;3.33;;;1.60;99.90;;;;;;5051404;28;20128;-66
2022/01/06 05:22:43;;;;;;;25.65;3.33;;;1.60;99.90;;;;;;5050947;28;20084;-66
2022/01/06 05:25:09;;;;;;;22.90;3.83;;;1.50;99.90;;;;;;5049984;28;20052;-67
2022/01/06 05:27:35;;;;;;;32.33;3.78;;;1.50;99.90;;;;;;5061877;28;20091;-67
2022/01/06 05:30:00;;;;;;;30.38;4.50;;;1.60;99.90;;;;;;5050017;28;20419;-67
2022/01/06 05:32:26;;;;;;;34.33;4.55;;;1.60;99.90;;;;;;5045916;28;20495;-66
2022/01/06 05:34:52;;;;;;;29.63;3.95;;;1.60;99.90;;;;;;5052055;28;20040;-66
2022/01/06 05:37:18;;;;;;;29.83;3.80;;;1.50;99.90;;;;;;5043411;28;20060;-66
2022/01/06 05:39:43;;;;;;;23.42;3.47;;;1.50;99.90;;;;;;5052165;28;20080;-66
2022/01/06 05:42:13;;;;;;;29.05;4.50;;;1.50;99.90;;;;;;5048438;28;20127;-66
2022/01/06 05:44:42;;;;;;;33.22;4.47;;;1.50;99.90;;;;;;5051148;28;20045;-66
2022/01/06 05:47:08;;;;;;;32.60;4.07;;;1.50;99.90;;;;;;5048951;28;20582;-67
2022/01/06 05:49:34;;;;;;;27.55;3.75;;;1.50;99.90;;;;;;5050681;28;20044;-66
2022/01/06 05:52:00;;;;;;;27.63;3.72;;;1.50;99.90;;;;;;5051138;28;20506;-68
2022/01/06 05:54:26;;;;;;;25.27;3.85;;;1.50;99.90;;;;;;5051648;28;20072;-66
2022/01/06 05:56:52;;;;;;;15.23;3.25;;;1.50;99.90;;;;;;5048769;28;20073;-67
2022/01/06 05:59:18;;;;;;;25.30;3.47;;;1.40;99.90;;;;;;5051197;28;20399;-66
2022/01/06 06:01:46;;;;;;;31.27;3.30;;;1.40;99.90;;;;;;5049643;28;20048;-66
2022/01/06 06:04:11;;;;;;;24.80;3.78;;;1.40;99.90;;;;;;5051513;28;20110;-65
2022/01/06 06:06:37;;;;;;;28.67;5.45;;;1.40;99.90;;;;;;5050170;28;20040;-65
2022/01/06 06:09:03;;;;;;;30.33;4.18;;;1.40;99.90;;;;;;5047396;28;20389;-66
2022/01/06 06:11:29;;;;;;;27.67;4.63;;;1.30;99.90;;;;;;5044633;28;20104;-65
2022/01/06 06:13:54;;;;;;;24.35;4.25;;;1.30;99.90;;;;;;5051501;28;20051;-66
2022/01/06 06:16:20;;;;;;;21.60;3.53;;;1.20;99.90;;;;;;5049298;28;20402;-66
2022/01/06 06:18:45;;;;;;;20.42;3.40;;;1.20;99.90;;;;;;5044615;28;20034;-66
2022/01/06 06:21:11;;;;;;;21.27;3.70;;;1.20;99.90;;;;;;5047758;28;20037;-66
2022/01/06 06:23:37;;;;;;;22.83;3.30;;;1.20;99.90;;;;;;5048091;28;20943;-66
2022/01/06 06:26:02;;;;;;;26.92;3.78;;;1.20;99.90;;;;;;5045898;28;20041;-66
2022/01/06 06:28:28;;;;;;;37.90;4.43;;;1.20;99.90;;;;;;5045127;28;20033;-65
2022/01/06 06:30:54;;;;;;;20.98;4.05;;;1.20;99.90;;;;;;5050408;28;20060;-66
2022/01/06 06:33:19;;;;;;;28.25;4.10;;;1.20;99.90;;;;;;5051553;28;20132;-66
2022/01/06 06:35:45;;;;;;;44.08;5.85;;;1.10;99.90;;;;;;5049529;28;20127;-66
2022/01/06 06:38:11;;;;;;;12.18;3.20;;;1.10;99.90;;;;;;5045842;28;20052;-67
2022/01/06 06:40:36;;;;;;;25.67;3.20;;;1.10;99.90;;;;;;5050933;28;20482;-66
2022/01/06 06:43:02;;;;;;;19.73;4.00;;;1.10;99.90;;;;;;5049992;28;20044;-67
2022/01/06 06:45:28;;;;;;;27.40;4.10;;;1.10;99.90;;;;;;5049860;28;20048;-66
2022/01/06 06:47:53;;;;;;;29.15;4.15;;;1.10;99.90;;;;;;5045766;28;20052;-66
2022/01/06 06:50:21;;;;;;;15.88;3.35;;;1.10;99.90;;;;;;5050659;28;20457;-66
2022/01/06 06:52:47;;;;;;;22.43;3.20;;;2.00;99.90;;;;;;5051492;28;20116;-65
2022/01/06 06:55:14;;;;;;;33.25;4.13;;;1.10;99.90;;;;;;5051819;28;20284;-65
2022/01/06 06:57:40;;;;;;;18.67;3.33;;;1.10;99.90;;;;;;5047652;28;20112;-65
2022/01/06 07:00:08;;;;;;;25.77;3.95;;;1.10;99.90;;;;;;5051537;28;20047;-65
2022/01/06 07:02:34;;;;;;;16.83;3.58;;;1.00;99.90;;;;;;5051558;28;20118;-66
2022/01/06 07:05:01;;;;;;;16.98;3.80;;;1.00;99.90;;;;;;5050024;28;20495;-66
2022/01/06 07:07:27;;;;;;;24.00;4.05;;;1.00;99.90;;;;;;5049404;28;20474;-67
2022/01/06 07:09:52;;;;;;;24.67;3.95;;;1.00;99.90;;;;;;5046836;28;20418;-66
2022/01/06 07:12:18;;;;;;;25.52;3.47;;;0.90;99.90;;;;;;5050408;28;20060;-67
2022/01/06 07:14:44;;;;;;;27.15;5.72;;;1.00;99.90;;;;;;5046646;28;20511;-67
2022/01/06 07:17:10;;;;;;;29.60;3.70;;;1.00;99.90;;;;;;5047198;28;20040;-66
2022/01/06 07:19:36;;;;;;;24.75;3.55;;;1.00;99.90;;;;;;5050409;28;20040;-66
2022/01/06 07:22:03;;;;;;;24.63;4.05;;;1.00;99.90;;;;;;5050626;28;20041;-66
2022/01/06 07:24:28;;;;;;;35.35;5.05;;;1.00;99.90;;;;;;5051209;28;20499;-66
2022/01/06 07:26:54;;;;;;;24.35;3.78;;;1.10;99.90;;;;;;5050600;28;20131;-66
2022/01/06 07:29:20;;;;;;;19.25;3.08;;;1.10;99.90;;;;;;5050683;28;20048;-66
2022/01/06 07:31:45;;;;;;;26.70;4.25;;;1.10;99.90;;;;;;5050990;28;20049;-66
2022/01/06 07:34:11;;;;;;;25.58;3.88;;;1.20;99.90;;;;;;5050063;28;20428;-67
2022/01/06 07:36:36;;;;;;;18.15;3.10;;;1.20;99.90;;;;;;5050549;28;20041;-66
2022/01/06 07:39:03;;;;;;;20.08;3.75;;;1.20;99.90;;;;;;5050345;28;20490;-66
2022/01/06 07:41:29;;;;;;;27.15;4.15;;;1.20;99.90;;;;;;5048987;28;20045;-66
2022/01/06 07:43:54;;;;;;;26.50;4.50;;;1.30;99.90;;;;;;5047651;28;20059;-66
2022/01/06 07:46:20;;;;;;;20.27;3.85;;;1.30;99.90;;;;;;5050848;28;20033;-66
2022/01/06 07:48:56;;;;;;;33.67;4.50;;;1.30;99.90;;;;;;5050135;28;20041;-66
2022/01/06 07:51:25;;;;;;;23.75;3.90;;;1.30;99.90;;;;;;5050037;28;20060;-67
2022/01/06 07:53:51;;;;;;;23.88;4.07;;;1.30;99.90;;;;;;5048683;28;20455;-68
2022/01/06 07:56:17;;;;;;;28.73;4.43;;;1.30;99.90;;;;;;5050187;28;20045;-66
2022/01/06 07:58:44;;;;;;;29.05;4.35;;;1.30;99.90;;;;;;5050630;28;20041;-66
2022/01/06 08:01:10;;;;;;;28.98;4.45;;;1.30;99.90;;;;;;5049915;28;20033;-66
2022/01/06 08:03:36;;;;;;;17.45;4.10;;;1.40;99.90;;;;;;5048310;28;20086;-67
2022/01/06 08:06:02;;;;;;;30.45;5.32;;;1.30;99.90;;;;;;5049047;28;20116;-66
2022/01/06 08:08:28;;;;;;;31.58;6.25;;;1.40;99.90;;;;;;5050386;28;20080;-66
2022/01/06 08:10:54;;;;;;;26.40;3.90;;;1.40;99.90;;;;;;5064319;28;20065;-68
2022/01/06 08:13:19;;;;;;;26.92;4.70;;;1.50;99.90;;;;;;5049677;28;20471;-66
2022/01/06 08:15:45;;;;;;;33.65;5.30;;;1.50;99.90;;;;;;5052646;28;20120;-67
2022/01/06 08:18:11;;;;;;;22.70;4.15;;;1.60;99.90;;;;;;5054196;28;20135;-66
2022/01/06 08:20:38;;;;;;;38.08;4.80;;;1.80;99.90;;;;;;5049850;28;20110;-66
2022/01/06 08:23:04;;;;;;;33.53;5.15;;;1.90;99.90;;;;;;5066244;28;20052;-68
2022/01/06 08:25:30;;;;;;;25.55;4.32;;;2.10;99.90;;;;;;5048959;28;20426;-68
2022/01/06 08:27:56;;;;;;;21.80;3.90;;;2.20;99.90;;;;;;5050067;28;20057;-68
2022/01/06 08:30:22;;;;;;;22.70;4.60;;;2.20;99.90;;;;;;5046743;28;20042;-67
2022/01/06 08:32:47;;;;;;;21.40;4.22;;;2.30;99.90;;;;;;5049946;28;20071;-68
2022/01/06 08:35:13;;;;;;;26.90;3.70;;;2.30;99.90;;;;;;5046934;28;20037;-66
2022/01/06 08:37:38;;;;;;;37.42;4.10;;;2.40;99.90;;;;;;5049928;28;20080;-67
2022/01/06 08:40:05;;;;;;;21.55;4.43;;;2.40;99.90;;;;;;5048767;28;20045;-68
2022/01/06 08:42:31;;;;;;;26.38;4.40;;;2.30;99.90;;;;;;5047843;28;20050;-67
2022/01/06 08:44:56;;;;;;;20.25;3.63;;;2.30;99.90;;;;;;5048409;28;20057;-66
2022/01/06 08:47:22;;;;;;;30.17;3.90;;;2.30;99.90;;;;;;5048694;28;20041;-67
2022/01/06 08:49:48;;;;;;;18.65;3.42;;;2.30;99.90;;;;;;5046421;28;20053;-68
2022/01/06 08:52:14;;;;;;;26.45;3.55;;;2.20;99.90;;;;;;5047566;28;20039;-65
2022/01/06 08:54:40;;;;;;;29.15;4.05;;;2.10;99.90;;;;;;5050011;28;20041;-68
2022/01/06 08:57:05;;;;;;;26.02;3.60;;;2.10;99.90;;;;;;5050442;28;20041;-67
2022/01/06 08:59:31;;;;;;;29.17;4.22;;;2.10;99.90;;;;;;5047137;28;20067;-68
2022/01/06 09:01:57;;;;;;;22.05;3.95;;;2.20;99.90;;;;;;5048516;28;20083;-66
2022/01/06 09:04:22;;;;;;;20.77;4.18;;;2.20;99.90;;;;;;5053582;28;20052;-67
2022/01/06 09:06:49;;;;;;;24.45;4.45;;;2.30;99.90;;;;;;5053396;28;20094;-66
2022/01/06 09:09:16;;;;;;;22.55;3.83;;;2.40;99.90;;;;;;5051407;28;20455;-66
2022/01/06 09:11:42;;;;;;;24.48;4.07;;;2.40;99.90;;;;;;5051126;28;20055;-66
2022/01/06 09:14:08;;;;;;;43.35;4.57;;;2.50;99.90;;;;;;5053041;28;20349;-66
2022/01/06 09:16:33;;;;;;;29.25;4.80;;;2.60;99.90;;;;;;5053345;28;21062;-66
2022/01/06 09:19:00;;;;;;;36.63;5.65;;;2.70;99.90;;;;;;5047754;28;20131;-66
2022/01/06 09:21:25;;;;;;;25.27;4.15;;;2.70;99.90;;;;;;5051296;28;20119;-67
2022/01/06 09:23:52;;;;;;;19.90;4.55;;;2.80;99.90;;;;;;5049958;28;20040;-66
2022/01/06 09:26:18;;;;;;;27.35;5.22;;;2.90;99.90;;;;;;5052006;28;20106;-67
2022/01/06 09:28:44;;;;;;;29.20;5.40;;;3.20;99.90;;;;;;5054632;28;20049;-67
2022/01/06 09:31:10;;;;;;;31.70;5.03;;;3.40;99.90;;;;;;5049285;28;20045;-66
2022/01/06 09:33:36;;;;;;;35.28;6.20;;;3.70;99.90;;;;;;5050449;28;20431;-67
2022/01/06 09:36:02;;;;;;;35.47;5.55;;;3.90;99.90;;;;;;5049106;28;20048;-67
2022/01/06 09:38:28;;;;;;;31.95;6.00;;;3.90;99.90;;;;;;5052581;28;20032;-67
2022/01/06 09:40:54;;;;;;;29.45;6.00;;;3.90;99.90;;;;;;5066189;28;20374;-67
2022/01/06 09:43:25;;;;;;;40.92;6.95;;;3.80;99.90;;;;;;5046102;28;20136;-66
2022/01/06 09:45:51;;;;;;;27.10;5.43;;;3.80;99.90;;;;;;5018936;28;20451;-66
2022/01/06 09:48:19;;;;;;;25.45;5.18;;;4.00;99.90;;;;;;5051861;28;20036;-67
2022/01/06 09:50:45;;;;;;;32.72;5.18;;;4.20;99.90;;;;;;5041566;28;20128;-68
2022/01/06 09:53:11;;;;;;;29.00;5.72;;;4.50;99.90;;;;;;5056883;28;20120;-68
2022/01/06 09:55:38;;;;;;;22.92;4.72;;;4.80;99.90;;;;;;5053029;28;20128;-67
2022/01/06 09:58:05;;;;;;;20.67;4.93;;;5.10;99.90;;;;;;5048943;28;20106;-66
2022/01/06 10:00:33;;;;;;;23.75;5.63;;;5.30;99.90;;;;;;5055540;28;20053;-67
2022/01/06 10:03:02;;;;;;;17.20;4.65;;;5.60;99.90;;;;;;5041668;28;20045;-66
2022/01/06 10:05:39;;;;;;;18.13;4.10;;;5.80;99.90;;;;;;5048630;28;20106;-67
2022/01/06 10:08:05;;;;;;;22.40;5.13;;;5.90;99.90;;;;;;5050755;28;20463;-67
2022/01/06 10:10:31;;;;;;;16.83;3.92;;;6.00;99.90;;;;;;5047142;28;20061;-67
2022/01/06 10:12:58;;;;;;;30.15;4.55;;;6.00;99.90;;;;;;5050795;28;20041;-67
2022/01/06 10:15:26;;;;;;;20.27;4.68;;;5.90;99.90;;;;;;5051141;28;20041;-67
2022/01/06 10:17:53;;;;;;;21.75;5.07;;;5.70;99.90;;;;;;5051053;28;20051;-67
2022/01/06 10:20:22;;;;;;;19.75;4.85;;;5.50;99.90;;;;;;5032887;28;20080;-67
2022/01/06 10:22:50;;;;;;;29.30;5.00;;;5.30;99.90;;;;;;5054685;28;20158;-66
2022/01/06 10:25:17;;;;;;;18.80;4.47;;;5.10;99.90;;;;;;5052104;28;20426;-66
2022/01/06 10:27:45;;;;;;;21.30;4.10;;;5.00;99.90;;;;;;5045017;28;20476;-65
2022/01/06 10:30:12;;;;;;;23.83;5.32;;;4.90;99.90;;;;;;5050280;28;20307;-66
2022/01/06 10:32:39;;;;;;;27.80;4.38;;;4.80;99.90;;;;;;5051397;28;20047;-67
2022/01/06 10:35:08;;;;;;;22.67;4.40;;;4.80;99.90;;;;;;5051985;28;20037;-67
2022/01/06 10:37:42;;;;;;;27.90;5.13;;;4.70;99.90;;;;;;5051348;28;20045;-66
2022/01/06 10:40:24;;;;;;;21.27;3.90;;;5.30;99.90;;;;;;5051490;28;20049;-67
2022/01/06 10:43:05;;;;;;;22.55;4.57;;;4.50;99.90;;;;;;5034355;28;20052;-68
2022/01/06 10:45:32;;;;;;;30.05;5.15;;;4.50;99.90;;;;;;5041016;28;20144;-67
2022/01/06 10:48:03;;;;;;;20.15;3.25;;;4.60;99.90;;;;;;5048265;28;20079;-67
2022/01/06 10:50:31;;;;;;;19.80;3.90;;;4.70;99.90;;;;;;5062404;28;20152;-67
2022/01/06 10:52:57;;;;;;;18.23;3.65;;;4.70;99.90;;;;;;5027408;28;20094;-69
2022/01/06 10:55:29;;;;;;;26.73;4.28;;;4.80;99.90;;;;;;5063336;28;20475;-67
2022/01/06 10:58:00;;;;;;;22.30;3.83;;;4.80;99.90;;;;;;5050209;28;20091;-67
2022/01/06 11:00:39;;;;;;;29.83;4.35;;;4.80;99.90;;;;;;5051483;28;20441;-67
2022/01/06 11:03:12;;;;;;;19.95;3.67;;;4.70;99.90;;;;;;5051202;28;20149;-67
2022/01/06 11:05:42;;;;;;;23.08;4.13;;;4.70;99.90;;;;;;5052070;28;20128;-66
2022/01/06 11:08:09;;;;;;;17.35;3.30;;;4.70;99.90;;;;;;5051994;28;20435;-67
2022/01/06 11:10:37;;;;;;;22.95;4.25;;;4.60;99.90;;;;;;5050986;28;20045;-66
2022/01/06 11:13:04;;;;;;;18.77;4.15;;;4.60;99.90;;;;;;5051763;28;20499;-67
2022/01/06 11:15:31;;;;;;;18.00;3.45;;;4.60;99.90;;;;;;5051718;28;20104;-66
2022/01/06 11:17:57;;;;;;;22.05;4.22;;;4.60;99.90;;;;;;5042946;28;20103;-66
2022/01/06 11:20:24;;;;;;;25.58;3.67;;;4.50;99.90;;;;;;5032407;28;20053;-68
2022/01/06 11:22:56;;;;;;;30.92;4.90;;;4.50;99.90;;;;;;5049605;28;20128;-66
2022/01/06 11:25:28;;;;;;;;;;;4.60;99.90;;;;;;5050533;28;20129;-67
2022/01/06 11:28:01;;;;;;;24.55;4.35;;;4.50;99.90;;;;;;5050253;28;19921;-67
2022/01/06 11:30:47;;;;;;;16.30;3.47;;;4.60;99.90;;;;;;5051319;28;20040;-66
2022/01/06 11:33:14;;;;;;;28.77;4.07;;;4.60;99.90;;;;;;5044017;28;20038;-67
2022/01/06 11:35:47;;;;;;;19.92;4.40;;;4.60;99.90;;;;;;5052157;28;20078;-66
2022/01/06 11:38:15;;;;;;;21.70;3.65;;;5.20;99.90;;;;;;5050068;28;20056;-66
2022/01/06 11:40:41;;;;;;;25.30;4.10;;;4.60;99.90;;;;;;5049451;28;20044;-66
2022/01/06 11:43:07;;;;;;;29.67;4.40;;;4.60;99.90;;;;;;5045156;28;20041;-67
2022/01/06 11:45:32;;;;;;;30.63;4.50;;;4.60;99.90;;;;;;5042499;28;20596;-67
2022/01/06 11:48:07;;;;;;;23.15;4.40;;;4.60;99.90;;;;;;5045178;28;20348;-67
2022/01/06 11:50:40;;;;;;;19.73;3.53;;;4.60;99.90;;;;;;5046493;28;20049;-67
2022/01/06 11:53:08;;;;;;;32.03;4.32;;;4.60;99.90;;;;;;5046171;28;20044;-67
2022/01/06 11:55:41;;;;;;;;;;;4.70;99.90;;;;;;5048562;28;20132;-67
2022/01/06 11:58:19;;;;;;;18.45;3.50;;;4.70;99.90;;;;;;5048932;28;20371;-67
2022/01/06 12:00:57;;;;;;;19.83;4.38;;;4.70;99.90;;;;;;5042449;28;20596;-67
2022/01/06 12:03:46;;;;;;;27.02;3.97;;;4.70;99.90;;;;;;5045216;28;20128;-68
2022/01/06 12:06:28;;;;;;;24.48;3.88;;;4.70;99.90;;;;;;5047976;28;20048;-69
2022/01/06 12:08:55;;;;;;;29.65;4.65;;;4.70;99.90;;;;;;5048470;28;20483;-67
2022/01/06 12:11:26;;;;;;;24.88;3.72;;;4.70;99.90;;;;;;5047520;28;20106;-67
2022/01/06 12:13:54;;;;;;;28.95;5.13;;;4.70;99.90;;;;;;5050432;28;20117;-67
2022/01/06 12:16:34;;;;;;;20.13;4.15;;;4.70;99.90;;;;;;5050106;28;20048;-69
2022/01/06 12:19:25;;;;;;;27.38;4.03;;;4.80;99.90;;;;;;5049400;28;20125;-67
2022/01/06 12:21:50;;;;;;;25.20;3.72;;;4.80;99.90;;;;;;5046607;28;20048;-68
2022/01/06 12:24:16;;;;;;;15.73;4.28;;;4.80;99.90;;;;;;5065949;28;20044;-69
2022/01/06 12:26:43;;;;;;;23.15;3.47;;;4.80;99.90;;;;;;5048224;28;20051;-68
2022/01/06 12:29:25;;;;;;;20.48;3.88;;;4.90;99.90;;;;;;5068051;28;20048;-68
2022/01/06 12:31:52;;;;;;;19.92;3.45;;;4.80;99.90;;;;;;5032451;28;20483;-67
2022/01/06 12:34:20;;;;;;;49.72;5.93;;;4.90;99.90;;;;;;5035868;28;20380;-68
2022/01/06 12:36:46;;;;;;;24.67;3.80;;;4.90;99.90;;;;;;5049783;28;20407;-67
2022/01/06 12:39:17;;;;;;;17.80;3.83;;;4.90;99.90;;;;;;5052152;28;20112;-67
2022/01/06 12:41:44;;;;;;;25.45;3.45;;;5.00;99.90;;;;;;5052632;28;20072;-68
2022/01/06 12:44:15;;;;;;;19.83;4.00;;;5.00;99.90;;;;;;5053956;28;20037;-68
2022/01/06 12:46:42;;;;;;;15.68;3.85;;;5.10;99.90;;;;;;5046122;28;20410;-69
2022/01/06 12:49:09;;;;;;;19.85;3.80;;;5.10;99.90;;;;;;5053446;28;20487;-67
2022/01/06 12:51:39;;;;;;;19.65;3.10;;;5.10;99.90;;;;;;5050467;28;20053;-67
2022/01/06 12:54:11;;;;;;;19.83;4.00;;;5.10;99.90;;;;;;5052568;28;20045;-67